Mullan, Idaho
Current Conditions -  °F | °C
As of 6:10 AM on Monday 24 Nov 2014 (Local Time) from KMLP Reporting Station
Haze Haze  
Wind Chill: 17°   Ceiling: 200
Heat Index: 24°   Visibility: 2mi
Dew Point: 20°   Wind: 6mph
Humidity: 84%   Direction: 240°WSW
Pressure: 30.17"   Gusts: NA
Location:  47.47°N, 115.8°W
Report Text: KMLP 241410Z AUTO 24005KT 2SM BR BKN002 OVC007 M04/M07 A3017 RMK AO2 VIS 3/4V5 T10441067
Loading
Personal Weather Stations






























Interactive Weather Map New forecast layout! Learn more

10-Day Weather Forecast

Advertisements
Track Severe Weather on mobile